createdAt,value
2019-01-05T00:00:42.613Z,56.65
2019-01-05T00:02:20.055Z,60.17
2019-01-05T00:03:42.928Z,60.05
2019-01-05T00:05:12.869Z,59.42
2019-01-05T00:08:02.756Z,56.00
2019-01-05T00:09:45.444Z,67.25
2019-01-05T00:11:30.321Z,56.75
2019-01-05T00:12:57.951Z,53.02
2019-01-05T00:14:36.900Z,67.17
2019-01-05T00:16:19.047Z,69.60
2019-01-05T00:19:23.266Z,61.35
2019-01-05T00:21:07.037Z,70.72
2019-01-05T00:22:29.225Z,55.43
2019-01-05T00:24:08.316Z,56.70
2019-01-05T00:25:40.124Z,59.42
2019-01-05T00:27:09.730Z,61.70
2019-01-05T00:28:48.783Z,64.70
2019-01-05T00:30:21.818Z,68.57
2019-01-05T00:31:45.329Z,67.62
2019-01-05T00:33:19.979Z,57.95
2019-01-05T00:35:01.335Z,67.03
2019-01-05T00:36:54.383Z,62.08
2019-01-05T00:38:17.604Z,68.00
2019-01-05T00:39:46.364Z,58.58
2019-01-05T00:41:10.989Z,65.10
2019-01-05T00:42:54.540Z,58.35
2019-01-05T00:44:15.327Z,68.90
2019-01-05T00:45:46.439Z,54.70
2019-01-05T00:49:17.115Z,65.47
2019-01-05T00:50:53.679Z,62.62
2019-01-05T00:52:28.781Z,59.18
2019-01-05T00:54:04.771Z,67.60
2019-01-05T00:55:43.821Z,54.75
2019-01-05T00:57:19.894Z,59.75
2019-01-05T01:01:06.040Z,63.33
2019-01-05T01:04:24.125Z,55.58
2019-01-05T01:06:03.056Z,64.45
2019-01-05T01:07:52.686Z,59.73
2019-01-05T01:09:14.009Z,59.98
2019-01-05T01:12:50.207Z,58.45
2019-01-05T01:14:26.062Z,67.92
2019-01-05T01:16:01.205Z,66.02
2019-01-05T01:18:56.366Z,55.08
2019-01-05T01:20:32.074Z,57.40
2019-01-05T01:22:08.642Z,64.50
2019-01-05T01:23:45.517Z,54.60
2019-01-05T01:26:05.607Z,57.53
2019-01-05T01:27:07.342Z,65.83
2019-01-05T01:28:43.883Z,54.33
2019-01-05T01:30:19.498Z,59.42
2019-01-05T01:31:55.324Z,60.45
2019-01-05T01:35:37.891Z,57.13
2019-01-05T01:36:50.676Z,61.08
2019-01-05T01:40:39.694Z,58.92
2019-01-05T01:42:14.836Z,62.38
2019-01-05T01:43:50.622Z,48.52
2019-01-05T01:45:26.147Z,56.25
2019-01-05T01:47:15.897Z,50.48
2019-01-05T01:50:32.063Z,48.60
2019-01-05T01:52:12.197Z,52.38
2019-01-05T01:53:38.977Z,52.30
2019-01-05T01:55:02.078Z,60.58
2019-01-05T01:56:34.285Z,50.15
2019-01-05T01:58:06.690Z,50.98
2019-01-05T01:59:35.323Z,51.92
2019-01-05T02:00:52.535Z,50.20
2019-01-05T02:02:26.878Z,57.40
2019-01-05T02:03:52.376Z,64.90
2019-01-05T02:05:26.619Z,51.85
2019-01-05T02:08:42.934Z,40.03
2019-01-05T02:10:22.465Z,43.98
2019-01-05T02:11:57.439Z,54.35
2019-01-05T02:13:32.590Z,39.92
2019-01-05T02:15:07.507Z,42.95
2019-01-05T02:16:42.444Z,40.45
2019-01-05T02:18:34.388Z,40.98
2019-01-05T02:21:53.113Z,50.28
2019-01-05T02:25:22.192Z,40.40
2019-01-05T02:27:00.470Z,42.67
2019-01-05T02:28:50.493Z,47.38
2019-01-05T02:30:27.953Z,49.67
2019-01-05T02:31:56.078Z,44.77
2019-01-05T02:33:31.178Z,47.83
2019-01-05T02:35:16.572Z,41.75
2019-01-05T02:36:50.966Z,39.85
2019-01-05T02:38:20.041Z,36.65
2019-01-05T02:39:55.633Z,39.85
2019-01-05T02:42:19.295Z,36.00
2019-01-05T02:44:32.890Z,36.00
2019-01-05T02:45:58.056Z,33.10
2019-01-05T02:47:36.280Z,36.30
2019-01-05T02:49:28.155Z,38.02
2019-01-05T02:50:50.536Z,30.97
2019-01-05T02:52:25.699Z,36.68
2019-01-05T02:54:08.766Z,38.50
2019-01-05T02:55:33.984Z,34.23
2019-01-05T02:57:09.158Z,32.08
2019-01-05T02:58:44.272Z,40.03
2019-01-05T03:00:19.408Z,32.33
2019-01-05T03:02:00.565Z,30.50
2019-01-05T03:03:35.481Z,31.37
2019-01-05T03:05:12.807Z,30.35
2019-01-05T03:06:46.740Z,30.15
2019-01-05T03:10:05.397Z,31.80
2019-01-05T03:11:48.145Z,27.93
2019-01-05T03:13:13.120Z,26.27
2019-01-05T03:14:47.908Z,25.85
2019-01-05T03:16:23.109Z,30.12
2019-01-05T03:17:58.473Z,24.90
2019-01-05T03:19:53.644Z,23.00
2019-01-05T03:24:50.022Z,22.60
2019-01-05T03:26:25.173Z,27.35
2019-01-05T03:28:00.270Z,23.70
2019-01-05T03:29:45.852Z,23.35
2019-01-05T03:31:10.705Z,24.70
2019-01-05T03:32:46.310Z,26.65
2019-01-05T03:34:21.275Z,24.52
2019-01-05T03:36:10.875Z,23.77
2019-01-05T03:37:36.285Z,26.20
2019-01-05T03:39:11.420Z,23.73
2019-01-05T03:41:00.865Z,23.57
2019-01-05T03:42:46.043Z,24.92
2019-01-05T03:46:10.095Z,25.27
2019-01-05T03:47:45.588Z,25.70
2019-01-05T03:49:20.833Z,23.45
2019-01-05T03:51:28.777Z,21.77
2019-01-05T03:53:09.893Z,28.70
2019-01-05T03:57:18.935Z,24.20
2019-01-05T03:59:23.598Z,21.95
2019-01-05T04:01:04.917Z,26.87
2019-01-05T04:02:42.777Z,22.07
2019-01-05T04:06:11.052Z,21.35
2019-01-05T04:07:51.857Z,22.77
2019-01-05T04:09:26.982Z,22.55
2019-01-05T04:11:08.323Z,24.87
2019-01-05T04:12:43.596Z,19.02
2019-01-05T04:16:22.185Z,22.93
2019-01-05T04:18:21.786Z,21.20
2019-01-05T04:20:23.492Z,22.20
2019-01-05T04:22:25.249Z,18.95
2019-01-05T04:24:26.907Z,21.68
2019-01-05T04:26:02.435Z,22.50
2019-01-05T04:29:25.427Z,20.37
2019-01-05T04:31:03.149Z,20.77
2019-01-05T04:32:38.008Z,21.33
2019-01-05T04:34:42.805Z,21.15
2019-01-05T04:36:44.521Z,20.88
2019-01-05T04:38:20.278Z,20.70
2019-01-05T04:40:08.071Z,26.40
2019-01-05T04:41:35.295Z,24.00
2019-01-05T04:45:01.072Z,20.27
2019-01-05T04:46:55.923Z,19.50
2019-01-05T04:48:57.737Z,19.70
2019-01-05T04:53:13.930Z,18.12
2019-01-05T04:54:49.005Z,17.85
2019-01-05T04:56:50.704Z,18.27
2019-01-05T04:58:49.883Z,20.30
2019-01-05T05:02:48.610Z,22.32
2019-01-05T05:04:50.308Z,17.80
2019-01-05T05:09:04.081Z,18.98
2019-01-05T05:10:51.186Z,21.52
2019-01-05T05:12:42.960Z,20.68
2019-01-05T05:14:18.397Z,16.60
2019-01-05T05:16:20.234Z,19.23
2019-01-05T05:18:24.671Z,16.87
2019-01-05T05:20:29.494Z,23.47
2019-01-05T05:22:34.241Z,15.95
2019-01-05T05:24:35.970Z,17.62
2019-01-05T05:26:11.275Z,19.30
2019-01-05T05:28:00.320Z,20.25
2019-01-05T05:29:23.577Z,21.70
2019-01-05T05:31:04.635Z,19.17
2019-01-05T05:32:54.429Z,14.47
2019-01-05T05:34:19.285Z,14.90
2019-01-05T05:35:48.387Z,17.82
2019-01-05T05:37:23.727Z,19.95
2019-01-05T05:41:05.277Z,20.92
2019-01-05T05:42:29.550Z,16.37
2019-01-05T05:44:04.447Z,17.05
2019-01-05T05:45:39.711Z,15.03
2019-01-05T05:47:29.016Z,15.90
2019-01-05T05:48:51.993Z,13.40
2019-01-05T05:50:27.016Z,12.70
2019-01-05T05:52:19.047Z,16.42
2019-01-05T05:53:42.102Z,16.10
2019-01-05T05:55:29.654Z,14.33
2019-01-05T05:56:52.444Z,13.93
2019-01-05T05:58:27.665Z,12.30
2019-01-05T06:00:02.641Z,13.65
2019-01-05T06:05:26.637Z,14.43
2019-01-05T06:07:02.388Z,14.23
2019-01-05T06:08:37.397Z,15.25
2019-01-05T06:12:05.361Z,17.65
2019-01-05T06:13:39.176Z,12.13
2019-01-05T06:15:54.850Z,13.88
2019-01-05T06:17:56.825Z,20.82
2019-01-05T06:19:31.584Z,16.75
2019-01-05T06:21:20.812Z,12.82
2019-01-05T06:22:44.096Z,15.48
2019-01-05T06:24:19.005Z,12.93
2019-01-05T06:25:53.855Z,17.95
2019-01-05T06:27:29.618Z,12.13
2019-01-05T06:30:59.669Z,12.73
2019-01-05T06:32:34.691Z,15.43
2019-01-05T06:36:02.090Z,15.20
2019-01-05T06:39:24.006Z,15.45
2019-01-05T06:43:09.872Z,15.15
2019-01-05T06:44:33.957Z,13.30
2019-01-05T06:46:09.200Z,15.88
2019-01-05T06:47:58.218Z,14.43
2019-01-05T06:49:21.373Z,17.05
2019-01-05T06:50:56.511Z,12.25
2019-01-05T06:52:31.625Z,14.05
2019-01-05T06:54:06.797Z,15.98
2019-01-05T06:55:41.902Z,13.98
2019-01-05T06:57:17.086Z,12.10
2019-01-05T06:59:06.736Z,16.02
2019-01-05T07:04:37.878Z,13.15
2019-01-05T07:06:00.811Z,12.93
2019-01-05T07:07:36.289Z,14.58
2019-01-05T07:09:11.177Z,12.30
2019-01-05T07:11:00.804Z,12.18
2019-01-05T07:12:25.989Z,12.13
2019-01-05T07:14:19.629Z,15.70
2019-01-05T07:15:45.039Z,13.38
2019-01-05T07:17:33.067Z,14.20
2019-01-05T07:18:55.769Z,20.52
2019-01-05T07:20:31.747Z,9.28
2019-01-05T07:22:24.449Z,12.95
2019-01-05T07:23:59.689Z,12.05
2019-01-05T07:25:24.788Z,13.00
2019-01-05T07:27:21.029Z,11.85
2019-01-05T07:28:40.419Z,12.10
2019-01-05T07:32:06.591Z,10.68
2019-01-05T07:33:42.778Z,10.00
2019-01-05T07:35:18.711Z,13.90
2019-01-05T07:36:53.624Z,18.70
2019-01-05T07:38:42.589Z,12.58
2019-01-05T07:40:11.506Z,14.55
2019-01-05T07:41:58.369Z,12.03
2019-01-05T07:43:38.298Z,8.73
2019-01-05T07:45:03.801Z,14.20
2019-01-05T07:46:38.963Z,7.17
2019-01-05T07:50:34.067Z,9.40
2019-01-05T07:51:56.865Z,13.43
2019-01-05T07:53:32.283Z,11.40
2019-01-05T07:55:21.785Z,7.25
2019-01-05T07:56:45.380Z,10.75
2019-01-05T08:02:16.261Z,16.20
2019-01-05T08:04:08.071Z,11.78
2019-01-05T08:05:33.946Z,9.63
2019-01-05T08:10:55.033Z,7.05
2019-01-05T08:12:30.346Z,4.78
2019-01-05T08:14:05.616Z,8.48
2019-01-05T08:15:42.551Z,6.95
2019-01-05T08:17:17.889Z,5.35
2019-01-05T08:18:54.217Z,7.75
2019-01-05T08:20:29.664Z,14.20
2019-01-05T08:22:04.797Z,7.78
2019-01-05T08:23:40.391Z,10.03
2019-01-05T08:25:17.014Z,6.90
2019-01-05T08:27:12.248Z,6.05
2019-01-05T08:29:19.652Z,8.23
2019-01-05T08:31:21.318Z,8.15
2019-01-05T08:33:11.070Z,7.47
2019-01-05T08:34:34.279Z,5.85
2019-01-05T08:36:24.317Z,14.05
2019-01-05T08:38:15.928Z,13.48
2019-01-05T08:40:31.686Z,15.05
2019-01-05T08:41:54.180Z,7.22
2019-01-05T08:43:45.729Z,6.85
2019-01-05T08:45:09.684Z,9.65
2019-01-05T08:46:44.771Z,9.98
2019-01-05T08:48:23.023Z,7.67
2019-01-05T08:52:01.741Z,11.68
2019-01-05T08:54:03.726Z,15.18
2019-01-05T08:55:39.824Z,8.30
2019-01-05T08:56:54.129Z,7.17
2019-01-05T09:00:07.129Z,10.58
2019-01-05T09:01:42.789Z,14.50
2019-01-05T09:03:18.329Z,15.95
2019-01-05T09:04:54.059Z,12.10
2019-01-05T09:06:43.344Z,18.25
2019-01-05T09:10:00.260Z,10.88
2019-01-05T09:11:25.797Z,9.23
2019-01-05T09:13:00.978Z,8.43
2019-01-05T09:16:33.129Z,10.58
2019-01-05T09:18:09.057Z,9.10
2019-01-05T09:19:44.302Z,15.72
2019-01-05T09:21:22.570Z,18.27
2019-01-05T09:22:57.648Z,17.80
2019-01-05T09:24:49.267Z,15.38
2019-01-05T09:26:18.348Z,9.95
2019-01-05T09:27:56.733Z,21.25
2019-01-05T09:29:57.256Z,10.45
2019-01-05T09:31:43.298Z,9.43
2019-01-05T09:33:08.558Z,6.97
2019-01-05T09:34:45.107Z,15.72
2019-01-05T09:36:24.937Z,9.35
2019-01-05T09:38:09.317Z,7.65
2019-01-05T09:39:47.091Z,10.35
2019-01-05T09:41:22.642Z,17.90
2019-01-05T09:44:53.897Z,10.80
2019-01-05T09:46:31.786Z,7.72
2019-01-05T09:48:06.971Z,11.22
2019-01-05T09:49:42.110Z,8.88
2019-01-05T09:51:17.479Z,12.20
2019-01-05T09:52:52.736Z,8.53
2019-01-05T09:54:28.373Z,7.55
2019-01-05T09:56:03.696Z,9.60
2019-01-05T09:57:39.227Z,10.03
2019-01-05T09:59:34.059Z,14.73
2019-01-05T10:00:57.164Z,10.23
2019-01-05T10:02:47.203Z,7.37
2019-01-05T10:04:31.869Z,14.43
2019-01-05T10:05:55.263Z,8.40
2019-01-05T10:07:30.224Z,13.70
2019-01-05T10:09:19.655Z,7.80
2019-01-05T10:10:38.934Z,6.67
2019-01-05T10:14:55.616Z,21.73
2019-01-05T10:16:42.840Z,6.30
2019-01-05T10:21:55.172Z,10.93
2019-01-05T10:23:57.258Z,8.53
2019-01-05T10:25:32.314Z,6.65
2019-01-05T10:27:07.375Z,9.93
2019-01-05T10:28:43.857Z,7.97
2019-01-05T10:30:21.949Z,11.00
2019-01-05T10:32:11.767Z,10.18
2019-01-05T10:33:51.733Z,5.80
2019-01-05T10:35:17.979Z,16.42
2019-01-05T10:38:50.195Z,12.25
2019-01-05T10:40:51.969Z,5.58
2019-01-05T10:42:45.537Z,9.38
2019-01-05T10:44:10.016Z,12.05
2019-01-05T10:45:41.821Z,8.53
2019-01-05T10:47:34.707Z,6.87
2019-01-05T10:49:13.728Z,10.78
2019-01-05T10:50:42.661Z,6.55
2019-01-05T10:56:35.711Z,14.03
2019-01-05T10:58:04.880Z,8.98
2019-01-05T10:59:43.288Z,15.20
2019-01-05T11:01:17.964Z,6.55
2019-01-05T11:02:53.297Z,7.30
2019-01-05T11:04:28.384Z,10.08
2019-01-05T11:06:03.344Z,9.05
2019-01-05T11:07:38.745Z,6.50
2019-01-05T11:09:13.777Z,16.20
2019-01-05T11:11:06.141Z,9.55
2019-01-05T11:12:29.285Z,10.63
2019-01-05T11:14:05.669Z,12.90
2019-01-05T11:15:49.001Z,16.30
2019-01-05T11:17:25.797Z,13.45
2019-01-05T11:19:00.915Z,16.32
2019-01-05T11:22:36.310Z,10.78
2019-01-05T11:26:11.343Z,9.30
2019-01-05T11:29:13.439Z,10.65
2019-01-05T11:30:48.173Z,10.60
2019-01-05T11:32:23.200Z,7.92
2019-01-05T11:36:20.053Z,14.53
2019-01-05T11:38:37.661Z,8.23
2019-01-05T11:40:16.929Z,7.75
2019-01-05T11:41:58.262Z,14.30
2019-01-05T11:43:51.665Z,15.28
2019-01-05T11:45:11.185Z,11.30
2019-01-05T11:46:46.994Z,9.10
2019-01-05T11:48:36.857Z,9.35
2019-01-05T11:51:33.593Z,10.03
2019-01-05T11:52:37.129Z,11.00
2019-01-05T11:54:12.324Z,10.85
2019-01-05T11:57:37.265Z,10.03
2019-01-05T11:59:16.055Z,8.58
2019-01-05T12:00:51.362Z,6.50
2019-01-05T12:02:26.398Z,12.95
2019-01-05T12:04:16.451Z,9.20
2019-01-05T12:05:41.715Z,10.05
2019-01-05T12:07:16.641Z,8.85
2019-01-05T12:08:51.807Z,11.65
2019-01-05T12:10:26.832Z,13.35
2019-01-05T12:12:02.193Z,6.70
2019-01-05T12:13:37.241Z,8.35
2019-01-05T12:15:13.426Z,12.95
2019-01-05T12:16:26.564Z,7.95
2019-01-05T12:18:28.235Z,6.62
2019-01-05T12:20:03.942Z,8.65
2019-01-05T12:21:39.326Z,9.63
2019-01-05T12:23:14.251Z,7.37
2019-01-05T12:24:49.480Z,10.98
2019-01-05T12:26:53.499Z,12.35
2019-01-05T12:28:18.383Z,6.40
2019-01-05T12:30:07.174Z,13.98
2019-01-05T12:31:30.703Z,10.28
2019-01-05T12:33:32.719Z,7.85
2019-01-05T12:35:34.451Z,8.53
2019-01-05T12:37:36.420Z,12.23
2019-01-05T12:39:31.053Z,6.05
2019-01-05T12:40:56.953Z,11.95
2019-01-05T12:42:32.638Z,13.48
2019-01-05T12:45:57.636Z,12.45
2019-01-05T12:47:55.150Z,11.40
2019-01-05T12:50:01.373Z,10.53
2019-01-05T12:52:02.139Z,13.60
2019-01-05T12:54:15.710Z,7.08
2019-01-05T12:56:39.090Z,8.65
2019-01-05T12:59:07.284Z,17.07
2019-01-05T13:01:05.307Z,16.90
2019-01-05T13:02:59.658Z,14.13
2019-01-05T13:05:24.334Z,10.55
2019-01-05T13:07:44.666Z,15.10
2019-01-05T13:10:00.258Z,19.40
2019-01-05T13:12:19.030Z,10.98
2019-01-05T13:14:29.822Z,12.30
2019-01-05T13:16:54.317Z,18.10
2019-01-05T13:19:14.745Z,9.08
2019-01-05T13:21:37.636Z,22.48
2019-01-05T13:23:42.393Z,13.15
2019-01-05T13:25:50.783Z,19.62
2019-01-05T13:28:05.684Z,18.32
2019-01-05T13:30:29.752Z,19.12
2019-01-05T13:32:51.852Z,18.67
2019-01-05T13:34:41.145Z,14.00
2019-01-05T13:36:41.309Z,13.55
2019-01-05T13:38:47.438Z,11.08
2019-01-05T13:40:59.704Z,18.35
2019-01-05T13:43:14.421Z,24.05
2019-01-05T13:45:35.416Z,13.03
2019-01-05T13:47:43.554Z,12.60
2019-01-05T13:49:43.063Z,10.10
2019-01-05T13:51:53.178Z,8.15
2019-01-05T13:53:43.860Z,8.05
2019-01-05T13:55:21.272Z,13.18
2019-01-05T13:56:46.887Z,9.78
2019-01-05T13:58:15.929Z,10.23
2019-01-05T13:59:38.503Z,13.32
2019-01-05T14:01:09.187Z,8.93
2019-01-05T14:02:34.350Z,13.30
2019-01-05T14:04:01.267Z,14.78
2019-01-05T14:05:31.826Z,8.23
2019-01-05T14:07:06.279Z,7.25
2019-01-05T14:08:28.847Z,10.50
2019-01-05T14:10:01.626Z,6.15
2019-01-05T14:11:35.118Z,9.00
2019-01-05T14:13:05.228Z,14.65
2019-01-05T14:14:27.603Z,8.68
2019-01-05T14:15:59.396Z,5.90
2019-01-05T14:17:24.734Z,5.65
2019-01-05T14:18:48.740Z,7.78
2019-01-05T14:20:27.783Z,9.55
2019-01-05T14:21:52.168Z,8.50
2019-01-05T14:23:16.119Z,26.48
2019-01-05T14:24:42.987Z,7.35
2019-01-05T14:26:09.475Z,58.75
2019-01-05T14:27:40.237Z,46.45
2019-01-05T14:29:04.822Z,12.68
2019-01-05T14:30:44.199Z,15.55
2019-01-05T14:32:23.067Z,35.75
2019-01-05T14:33:45.623Z,29.67
2019-01-05T14:35:12.322Z,17.60
2019-01-05T14:36:48.375Z,10.28
2019-01-05T14:38:18.263Z,19.80
2019-01-05T14:39:41.285Z,16.82
2019-01-05T14:41:14.737Z,12.78
2019-01-05T14:42:39.084Z,13.80
2019-01-05T14:44:05.808Z,5.72
2019-01-05T14:45:42.101Z,13.40
2019-01-05T14:47:04.682Z,5.97
2019-01-05T14:48:27.011Z,15.05
2019-01-05T14:49:49.881Z,8.50
2019-01-05T14:51:13.028Z,13.88
2019-01-05T14:52:35.859Z,13.70
2019-01-05T14:53:59.859Z,11.65
2019-01-05T14:55:39.363Z,11.55
2019-01-05T14:57:18.831Z,13.80
2019-01-05T14:58:54.581Z,12.43
2019-01-05T15:00:29.712Z,8.55
2019-01-05T15:01:59.883Z,14.85
2019-01-05T15:03:22.755Z,13.72
2019-01-05T15:04:47.079Z,15.32
2019-01-05T15:06:09.635Z,9.43
2019-01-05T15:07:23.993Z,10.38
2019-01-05T15:08:51.672Z,9.45
2019-01-05T15:10:23.134Z,13.32
2019-01-05T15:11:46.474Z,7.75
2019-01-05T15:13:22.677Z,10.98
2019-01-05T15:14:47.406Z,59.53
2019-01-05T15:16:18.186Z,35.45
2019-01-05T15:17:41.916Z,32.80
2019-01-05T15:19:04.642Z,40.33
2019-01-05T15:20:48.235Z,42.53
2019-01-05T15:22:11.444Z,18.00
2019-01-05T15:23:35.077Z,14.50
2019-01-05T15:25:15.525Z,8.65
2019-01-05T15:26:49.548Z,8.58
2019-01-05T15:28:13.869Z,10.20
2019-01-05T15:29:57.279Z,13.15
2019-01-05T15:31:24.517Z,10.63
2019-01-05T15:32:55.519Z,7.10
2019-01-05T15:34:20.272Z,11.48
2019-01-05T15:35:55.129Z,11.63
2019-01-05T15:37:20.570Z,16.30
2019-01-05T15:38:54.459Z,8.15
2019-01-05T15:40:21.363Z,9.50
2019-01-05T15:42:07.956Z,12.40
2019-01-05T15:43:31.950Z,8.70
2019-01-05T15:44:58.755Z,9.70
2019-01-05T15:46:21.300Z,8.58
2019-01-05T15:47:44.384Z,14.35
2019-01-05T15:49:26.389Z,9.73
2019-01-05T15:50:50.906Z,9.95
2019-01-05T15:52:19.899Z,11.65
2019-01-05T15:53:42.263Z,11.22
2019-01-05T15:55:06.411Z,10.25
2019-01-05T15:56:36.285Z,11.60
2019-01-05T15:57:59.287Z,12.30
2019-01-05T15:59:26.624Z,11.70
2019-01-05T16:00:48.815Z,14.68
2019-01-05T16:02:19.190Z,10.75
2019-01-05T16:03:50.390Z,5.80
2019-01-05T16:05:13.158Z,12.85
2019-01-05T16:06:45.803Z,14.18
2019-01-05T16:08:08.059Z,11.03
2019-01-05T16:09:30.943Z,11.33
2019-01-05T16:11:12.165Z,10.48
2019-01-05T16:12:35.726Z,10.63
2019-01-05T16:14:03.830Z,23.02
2019-01-05T16:15:40.022Z,9.50
2019-01-05T16:17:02.753Z,15.50
2019-01-05T16:18:40.204Z,10.93
2019-01-05T16:20:09.965Z,9.85
2019-01-05T16:21:45.142Z,10.05
2019-01-05T16:23:10.995Z,11.50
2019-01-05T16:24:35.796Z,13.93
2019-01-05T16:26:00.160Z,12.50
2019-01-05T16:27:55.884Z,10.32
2019-01-05T16:29:38.340Z,11.78
2019-01-05T16:31:22.434Z,21.80
2019-01-05T16:32:46.820Z,11.15
2019-01-05T16:34:17.103Z,11.80
2019-01-05T16:36:04.474Z,12.58
2019-01-05T16:37:38.634Z,12.50
2019-01-05T16:39:12.671Z,16.45
2019-01-05T16:40:37.875Z,22.48
2019-01-05T16:42:15.807Z,43.73
2019-01-05T16:43:48.337Z,97.55
2019-01-05T16:45:18.163Z,49.83
2019-01-05T16:46:38.113Z,39.40
2019-01-05T16:48:09.572Z,37.03
2019-01-05T16:49:54.440Z,31.02
2019-01-05T16:51:17.914Z,24.43
2019-01-05T16:52:58.521Z,20.77
2019-01-05T16:54:25.672Z,24.65
2019-01-05T16:55:54.052Z,41.15
2019-01-05T16:57:41.296Z,47.98
2019-01-05T16:59:04.886Z,32.20
2019-01-05T17:00:30.824Z,27.15
2019-01-05T17:02:01.113Z,60.10
2019-01-05T17:03:23.395Z,18.25
2019-01-05T17:04:57.931Z,20.43
2019-01-05T17:06:21.563Z,16.50
2019-01-05T17:07:49.049Z,16.93
2019-01-05T17:09:33.963Z,16.75
2019-01-05T17:11:03.497Z,16.32
2019-01-05T17:12:40.871Z,11.53
2019-01-05T17:14:24.959Z,21.35
2019-01-05T17:15:46.628Z,33.20
2019-01-05T17:17:29.742Z,95.60
2019-01-05T17:19:05.349Z,338.07
2019-01-05T17:22:07.490Z,137.82
2019-01-05T17:23:42.913Z,64.35
2019-01-05T17:25:18.466Z,37.30
2019-01-05T17:26:53.758Z,75.95
2019-01-05T17:28:30.303Z,68.97
2019-01-05T17:30:07.938Z,28.50
2019-01-05T17:31:43.779Z,15.30
2019-01-05T17:33:18.841Z,18.62
2019-01-05T17:34:53.893Z,19.48
2019-01-05T17:36:29.899Z,13.75
2019-01-05T17:38:08.858Z,14.58
2019-01-05T17:39:45.726Z,16.32
2019-01-05T17:41:30.765Z,14.35
2019-01-05T17:42:57.289Z,15.98
2019-01-05T17:44:29.676Z,13.40
2019-01-05T17:45:57.100Z,17.45
2019-01-05T17:47:18.268Z,14.87
2019-01-05T17:48:47.349Z,12.20
2019-01-05T17:50:09.971Z,16.85
2019-01-05T17:51:33.371Z,17.85
2019-01-05T17:52:58.627Z,11.95
2019-01-05T17:54:22.710Z,13.65
2019-01-05T17:55:47.292Z,14.05
2019-01-05T17:57:15.804Z,16.62
2019-01-05T17:58:57.917Z,21.95
2019-01-05T18:00:54.175Z,20.20
2019-01-05T18:02:27.966Z,28.05
2019-01-05T18:04:05.379Z,36.35
2019-01-05T18:05:32.828Z,31.10
2019-01-05T18:07:00.177Z,19.00
2019-01-05T18:08:30.258Z,35.80
2019-01-05T18:09:57.263Z,16.15
2019-01-05T18:11:19.322Z,19.23
2019-01-05T18:12:54.639Z,25.08
2019-01-05T18:14:17.426Z,28.40
2019-01-05T18:15:40.860Z,20.37
2019-01-05T18:17:17.974Z,59.05
2019-01-05T18:18:48.882Z,39.53
2019-01-05T18:20:16.821Z,18.67
2019-01-05T18:21:44.162Z,18.02
2019-01-05T18:23:21.112Z,15.53
2019-01-05T18:24:43.256Z,13.00
2019-01-05T18:26:15.698Z,18.73
2019-01-05T18:27:43.718Z,19.98
2019-01-05T18:29:08.552Z,24.72
2019-01-05T18:30:31.439Z,28.67
2019-01-05T18:31:54.450Z,19.42
2019-01-05T18:33:23.421Z,20.43
2019-01-05T18:34:58.516Z,15.00
2019-01-05T18:36:29.232Z,15.30
2019-01-05T18:38:00.388Z,15.65
2019-01-05T18:39:29.326Z,14.40
2019-01-05T18:41:02.305Z,20.15
2019-01-05T18:42:41.089Z,14.90
2019-01-05T18:44:04.422Z,25.95
2019-01-05T18:45:40.748Z,19.73
2019-01-05T18:47:06.867Z,42.43
2019-01-05T18:48:37.691Z,40.15
2019-01-05T18:50:22.836Z,34.10
2019-01-05T18:51:55.868Z,24.40
2019-01-05T18:53:20.516Z,14.78
2019-01-05T18:54:53.734Z,16.55
2019-01-05T18:56:18.789Z,16.02
2019-01-05T18:57:48.905Z,13.28
2019-01-05T18:59:13.251Z,23.15
2019-01-05T19:00:39.262Z,17.60
2019-01-05T19:02:13.024Z,16.70
2019-01-05T19:03:54.433Z,25.30
2019-01-05T19:05:30.320Z,13.85
2019-01-05T19:07:13.791Z,17.37
2019-01-05T19:08:40.639Z,13.28
2019-01-05T19:10:21.303Z,17.05
2019-01-05T19:12:10.646Z,31.62
2019-01-05T19:13:49.556Z,28.40
2019-01-05T19:15:26.535Z,29.85
2019-01-05T19:17:00.678Z,14.85
2019-01-05T19:18:41.989Z,25.50
2019-01-05T19:20:17.541Z,15.05
2019-01-05T19:22:12.665Z,14.73
2019-01-05T19:23:46.052Z,21.97
2019-01-05T19:25:30.126Z,17.25
2019-01-05T19:27:14.938Z,17.35
2019-01-05T19:29:12.773Z,14.93
2019-01-05T19:30:45.945Z,11.95
2019-01-05T19:32:35.656Z,14.50
2019-01-05T19:34:08.976Z,16.55
2019-01-05T19:35:50.427Z,28.55
2019-01-05T19:37:31.873Z,25.62
2019-01-05T19:39:18.224Z,18.05
2019-01-05T19:41:11.560Z,19.40
2019-01-05T19:43:05.233Z,23.32
2019-01-05T19:44:52.889Z,26.02
2019-01-05T19:46:21.596Z,15.85
2019-01-05T19:47:56.811Z,18.82
2019-01-05T19:49:24.861Z,33.00
2019-01-05T19:50:56.011Z,28.70
2019-01-05T19:52:42.295Z,16.85
2019-01-05T19:54:20.689Z,15.50
2019-01-05T19:55:50.434Z,12.30
2019-01-05T19:57:15.242Z,18.92
2019-01-05T19:58:38.304Z,18.57
2019-01-05T20:00:03.706Z,14.53
2019-01-05T20:01:28.171Z,13.60
2019-01-05T20:02:51.363Z,13.20
2019-01-05T20:04:15.421Z,15.58
2019-01-05T20:05:46.772Z,13.88
2019-01-05T20:07:13.951Z,17.73
2019-01-05T20:08:47.270Z,13.38
2019-01-05T20:10:13.303Z,16.90
2019-01-05T20:11:41.934Z,17.40
2019-01-05T20:13:04.822Z,14.38
2019-01-05T20:14:47.881Z,16.37
2019-01-05T20:16:22.499Z,15.50
2019-01-05T20:18:14.749Z,20.02
2019-01-05T20:19:48.174Z,22.95
2019-01-05T20:21:19.746Z,15.00
2019-01-05T20:22:43.617Z,16.32
2019-01-05T20:24:23.640Z,12.28
2019-01-05T20:26:02.899Z,17.60
2019-01-05T20:27:38.886Z,18.05
2019-01-05T20:29:05.499Z,22.13
2019-01-05T20:30:28.858Z,23.40
2019-01-05T20:32:02.552Z,26.60
2019-01-05T20:33:27.274Z,15.35
2019-01-05T20:34:52.981Z,19.67
2019-01-05T20:36:28.677Z,27.98
2019-01-05T20:37:54.230Z,18.90
2019-01-05T20:39:16.945Z,18.05
2019-01-05T20:40:54.331Z,24.57
2019-01-05T20:42:23.427Z,15.13
2019-01-05T20:44:00.958Z,31.00
2019-01-05T20:45:42.168Z,21.10
2019-01-05T20:47:04.650Z,18.62
2019-01-05T20:48:47.272Z,16.20
2019-01-05T20:50:12.333Z,14.68
2019-01-05T20:51:34.964Z,16.35
2019-01-05T20:53:00.352Z,22.75
2019-01-05T20:54:27.986Z,33.73
2019-01-05T20:55:55.942Z,30.55
2019-01-05T20:57:19.859Z,16.40
2019-01-05T20:58:45.812Z,25.02
2019-01-05T21:00:29.476Z,18.75
2019-01-05T21:01:55.216Z,22.95
2019-01-05T21:03:24.750Z,17.73
2019-01-05T21:04:55.706Z,17.67
2019-01-05T21:06:18.163Z,15.58
2019-01-05T21:07:42.448Z,23.20
2019-01-05T21:09:08.153Z,17.10
2019-01-05T21:10:40.965Z,13.43
2019-01-05T21:12:15.281Z,18.40
2019-01-05T21:13:37.823Z,19.80
2019-01-05T21:15:03.928Z,19.25
2019-01-05T21:16:36.995Z,13.05
2019-01-05T21:18:09.052Z,24.92
2019-01-05T21:19:48.902Z,36.28
2019-01-05T21:21:15.042Z,94.70
2019-01-05T21:22:51.496Z,72.47
2019-01-05T21:24:14.294Z,56.15
2019-01-05T21:26:00.264Z,84.83
2019-01-05T21:27:23.833Z,22.10
2019-01-05T21:28:48.844Z,27.73
2019-01-05T21:30:23.957Z,18.30
2019-01-05T21:32:07.879Z,25.37
2019-01-05T21:33:29.033Z,17.80
2019-01-05T21:35:07.772Z,15.58
2019-01-05T21:36:40.685Z,14.53
2019-01-05T21:38:06.751Z,36.65
2019-01-05T21:39:32.188Z,20.30
2019-01-05T21:40:55.211Z,68.47
2019-01-05T21:42:37.616Z,29.42
2019-01-05T21:44:07.634Z,20.30
2019-01-05T21:45:38.372Z,13.03
2019-01-05T21:47:09.880Z,16.45
2019-01-05T21:48:48.059Z,14.38
2019-01-05T21:50:19.989Z,16.30
2019-01-05T21:51:47.540Z,15.23
2019-01-05T21:53:32.715Z,16.95
2019-01-05T21:55:13.434Z,13.43
2019-01-05T21:56:48.548Z,16.60
2019-01-05T21:58:13.767Z,17.17
2019-01-05T21:59:41.132Z,19.42
2019-01-05T22:01:08.431Z,15.28
2019-01-05T22:02:38.086Z,13.40
2019-01-05T22:04:07.839Z,19.10
2019-01-05T22:05:34.591Z,25.75
2019-01-05T22:07:18.848Z,30.62
2019-01-05T22:08:47.082Z,39.00
2019-01-05T22:10:10.685Z,35.50
2019-01-05T22:11:32.421Z,23.42
2019-01-05T22:12:57.056Z,15.85
2019-01-05T22:14:28.288Z,12.30
2019-01-05T22:16:07.957Z,12.70
2019-01-05T22:17:35.019Z,12.23
2019-01-05T22:19:09.246Z,16.05
2019-01-05T22:20:48.557Z,18.27
2019-01-05T22:22:22.177Z,17.15
2019-01-05T22:23:57.042Z,17.20
2019-01-05T22:25:19.864Z,15.35
2019-01-05T22:26:48.115Z,19.32
2019-01-05T22:28:15.745Z,17.77
2019-01-05T22:29:46.694Z,12.68
2019-01-05T22:31:24.317Z,10.90
2019-01-05T22:32:51.282Z,10.80
2019-01-05T22:34:16.480Z,16.48
2019-01-05T22:35:54.735Z,10.35
2019-01-05T22:37:38.713Z,15.00
2019-01-05T22:39:14.441Z,11.50
2019-01-05T22:40:37.483Z,17.10
2019-01-05T22:42:06.708Z,12.88
2019-01-05T22:43:29.558Z,17.95
2019-01-05T22:44:55.924Z,20.85